Time,TemperatureF,DewpointF,PressureIn,WindDirection,WindDirectionDegrees,WindSpeedMPH,WindSpeedGustMPH,Humidity,HourlyPrecipIn,Conditions,Clouds,dailyrainin,SolarRadiationWatts/m^2,SoftwareType,DateUTC
2013-05-08 00:01:00,44.0,41.0,-100.00,South,175,0.0,5.0,90,0.00,,,0.39,0.000000,,2013-05-08 07:01:00,
2013-05-08 00:11:00,44.0,41.0,-100.00,South,175,0.0,5.0,90,0.00,,,0.39,0.000000,,2013-05-08 07:11:00,
2013-05-08 00:21:00,44.0,41.0,-100.00,South,175,0.0,5.0,90,0.00,,,0.39,0.000000,,2013-05-08 07:21:00,
2013-05-08 00:31:00,44.0,41.0,-100.00,South,175,0.0,5.0,90,0.00,,,0.39,0.000000,,2013-05-08 07:31:00,
2013-05-08 01:01:00,45.0,44.0,-100.00,SSE,167,0.0,0.0,95,0.00,,,0.38,0.000000,,2013-05-08 08:01:00,
2013-05-08 01:11:00,45.0,44.0,-100.00,SSE,167,0.0,0.0,95,0.00,,,0.38,0.000000,,2013-05-08 08:11:00,
2013-05-08 01:21:00,45.0,44.0,-100.00,SSE,167,0.0,0.0,95,0.00,,,0.38,0.000000,,2013-05-08 08:21:00,
2013-05-08 01:31:00,45.0,44.0,-100.00,SSE,167,0.0,0.0,95,0.00,,,0.38,0.000000,,2013-05-08 08:31:00,
2013-05-08 02:02:00,42.0,41.0,-100.00,SE,145,0.0,2.0,97,0.00,,,0.37,0.000000,,2013-05-08 09:02:00,
2013-05-08 02:11:00,42.0,41.0,-100.00,SE,145,0.0,2.0,97,0.00,,,0.37,0.000000,,2013-05-08 09:11:00,
2013-05-08 02:21:00,42.0,41.0,-100.00,SE,145,0.0,2.0,97,0.00,,,0.37,0.000000,,2013-05-08 09:21:00,
2013-05-08 02:32:00,42.0,41.0,-100.00,SE,145,0.0,2.0,97,0.00,,,0.37,0.000000,,2013-05-08 09:32:00,
2013-05-08 03:02:00,41.0,40.0,-100.00,SE,132,0.0,2.0,98,0.00,,,0.35,0.000000,,2013-05-08 10:02:00,
2013-05-08 03:12:00,41.0,40.0,-100.00,SE,132,0.0,2.0,98,0.00,,,0.35,0.000000,,2013-05-08 10:12:00,
2013-05-08 03:22:00,41.0,40.0,-100.00,SE,132,0.0,2.0,98,0.00,,,0.35,0.000000,,2013-05-08 10:22:00,
2013-05-08 03:33:00,41.0,40.0,-100.00,SE,132,0.0,2.0,98,0.00,,,0.35,0.000000,,2013-05-08 10:33:00,
2013-05-08 04:02:00,40.0,40.0,-100.00,SE,136,0.0,3.0,99,0.00,,,0.34,0.000000,,2013-05-08 11:02:00,
2013-05-08 04:11:00,40.0,40.0,-100.00,SE,136,0.0,3.0,99,0.00,,,0.34,0.000000,,2013-05-08 11:11:00,
2013-05-08 04:22:00,40.0,40.0,-100.00,SE,136,0.0,3.0,99,0.00,,,0.34,0.000000,,2013-05-08 11:22:00,
2013-05-08 04:32:00,40.0,40.0,-100.00,SE,136,0.0,3.0,99,0.00,,,0.34,0.000000,,2013-05-08 11:32:00,
2013-05-08 05:01:00,44.0,44.0,-100.00,South,180,0.0,5.0,99,0.00,,,0.18,0.000000,,2013-05-08 12:01:00,
2013-05-08 05:11:00,44.0,44.0,-100.00,South,180,0.0,5.0,99,0.00,,,0.18,0.000000,,2013-05-08 12:11:00,
2013-05-08 05:21:00,44.0,44.0,-100.00,South,180,0.0,5.0,99,0.00,,,0.18,0.000000,,2013-05-08 12:21:00,
2013-05-08 05:31:00,44.0,44.0,-100.00,South,180,0.0,5.0,99,0.00,,,0.18,0.000000,,2013-05-08 12:31:00,
2013-05-08 06:01:00,43.0,42.0,-100.00,SSE,163,0.0,4.0,97,0.00,,,0.15,0.000000,,2013-05-08 13:01:00,
2013-05-08 06:11:00,43.0,42.0,-100.00,SSE,163,0.0,4.0,97,0.00,,,0.15,0.000000,,2013-05-08 13:11:00,
2013-05-08 06:21:00,43.0,42.0,-100.00,SSE,163,0.0,4.0,97,0.00,,,0.15,0.000000,,2013-05-08 13:21:00,
2013-05-08 06:32:00,43.0,42.0,-100.00,SSE,163,0.0,4.0,97,0.00,,,0.15,0.000000,,2013-05-08 13:32:00,
2013-05-08 07:02:00,43.0,42.0,-100.00,SSE,155,0.0,3.0,98,0.00,,,0.14,7.000000,,2013-05-08 14:02:00,
2013-05-08 07:11:00,43.0,42.0,-100.00,SSE,155,0.0,3.0,98,0.00,,,0.14,7.000000,,2013-05-08 14:11:00,
2013-05-08 07:21:00,43.0,42.0,-100.00,SSE,155,0.0,3.0,98,0.00,,,0.14,7.000000,,2013-05-08 14:21:00,
2013-05-08 07:31:00,43.0,42.0,-100.00,SSE,155,0.0,3.0,98,0.00,,,0.14,7.000000,,2013-05-08 14:31:00,
2013-05-08 08:02:00,-999.0,-99.9,-100.00,North,-999,0.0,-999.0,-999,0.00,,,0.08,,,2013-05-08 15:02:00,
2013-05-08 08:11:00,-999.0,-99.9,-100.00,North,-999,0.0,-999.0,-999,0.00,,,0.08,,,2013-05-08 15:11:00,
2013-05-08 08:22:00,-999.0,-99.9,-100.00,North,-999,0.0,-999.0,-999,0.00,,,0.08,,,2013-05-08 15:22:00,
2013-05-08 08:33:00,-999.0,-99.9,-100.00,North,-999,0.0,-999.0,-999,0.00,,,0.08,,,2013-05-08 15:33:00,
2013-05-08 09:03:00,47.0,45.0,-100.00,SE,146,0.0,-999.0,94,0.00,,,-99.99,,,2013-05-08 16:03:00,
2013-05-08 09:12:00,47.0,45.0,-100.00,SE,146,0.0,-999.0,94,0.00,,,-99.99,,,2013-05-08 16:12:00,
2013-05-08 09:23:00,47.0,45.0,-100.00,SE,146,0.0,-999.0,94,0.00,,,-99.99,,,2013-05-08 16:23:00,
2013-05-08 09:33:00,47.0,45.0,-100.00,SE,146,0.0,-999.0,94,0.00,,,-99.99,,,2013-05-08 16:33:00,
2013-05-08 10:02:00,46.0,44.0,-100.00,NW,304,0.0,6.0,93,0.00,,,-99.99,132.000000,,2013-05-08 17:02:00,
2013-05-08 10:11:00,46.0,44.0,-100.00,NW,304,0.0,6.0,93,0.00,,,-99.99,132.000000,,2013-05-08 17:11:00,
2013-05-08 10:22:00,46.0,44.0,-100.00,NW,304,0.0,6.0,93,0.00,,,-99.99,132.000000,,2013-05-08 17:22:00,
2013-05-08 10:31:00,46.0,44.0,-100.00,NW,304,0.0,6.0,93,0.00,,,-99.99,132.000000,,2013-05-08 17:31:00,
2013-05-08 11:02:00,49.0,45.0,-100.00,SSW,200,0.0,5.0,85,0.00,,,0.00,319.000000,,2013-05-08 18:02:00,
2013-05-08 11:11:00,49.0,45.0,-100.00,SSW,200,0.0,5.0,85,0.00,,,0.00,319.000000,,2013-05-08 18:11:00,
2013-05-08 11:21:00,49.0,45.0,-100.00,SSW,200,0.0,5.0,85,0.00,,,0.00,319.000000,,2013-05-08 18:21:00,
2013-05-08 11:31:00,49.0,45.0,-100.00,SSW,200,0.0,5.0,85,0.00,,,0.00,319.000000,,2013-05-08 18:31:00,
2013-05-08 12:01:00,51.0,47.0,-100.00,WSW,249,0.0,6.0,86,0.00,,,0.00,255.000000,,2013-05-08 19:01:00,
2013-05-08 12:11:00,51.0,47.0,-100.00,WSW,249,0.0,6.0,86,0.00,,,0.00,255.000000,,2013-05-08 19:11:00,
2013-05-08 12:21:00,51.0,47.0,-100.00,WSW,249,0.0,6.0,86,0.00,,,0.00,255.000000,,2013-05-08 19:21:00,
2013-05-08 12:31:00,51.0,47.0,-100.00,WSW,249,0.0,6.0,86,0.00,,,0.00,255.000000,,2013-05-08 19:31:00,
2013-05-08 13:01:00,55.0,47.0,-100.00,WSW,255,1.0,6.0,75,0.00,,,0.00,787.000000,,2013-05-08 20:01:00,
2013-05-08 13:11:00,55.0,47.0,-100.00,WSW,255,1.0,6.0,75,0.00,,,0.00,787.000000,,2013-05-08 20:11:00,
2013-05-08 13:22:00,55.0,47.0,-100.00,WSW,255,1.0,6.0,75,0.00,,,0.00,787.000000,,2013-05-08 20:22:00,
2013-05-08 13:32:00,55.0,47.0,-100.00,WSW,255,1.0,6.0,75,0.00,,,0.00,787.000000,,2013-05-08 20:32:00,
2013-05-08 14:01:00,58.0,47.0,-100.00,WNW,295,4.0,11.0,68,0.00,,,0.00,,,2013-05-08 21:01:00,
2013-05-08 14:11:00,58.0,47.0,-100.00,WNW,295,4.0,11.0,68,0.00,,,0.00,,,2013-05-08 21:11:00,
2013-05-08 14:21:00,58.0,47.0,-100.00,WNW,295,4.0,11.0,68,0.00,,,0.00,,,2013-05-08 21:21:00,
2013-05-08 14:32:00,58.0,47.0,-100.00,WNW,295,4.0,11.0,68,0.00,,,0.00,,,2013-05-08 21:32:00,
2013-05-08 15:02:00,59.0,48.0,-100.00,SSW,193,5.0,13.0,66,0.00,,,0.00,1496.000000,,2013-05-08 22:02:00,
2013-05-08 15:12:00,59.0,48.0,-100.00,SSW,193,5.0,13.0,66,0.00,,,0.00,1496.000000,,2013-05-08 22:12:00,
2013-05-08 15:22:00,59.0,48.0,-100.00,SSW,193,5.0,13.0,66,0.00,,,0.00,1496.000000,,2013-05-08 22:22:00,
2013-05-08 15:33:00,59.0,48.0,-100.00,SSW,193,5.0,13.0,66,0.00,,,0.00,1496.000000,,2013-05-08 22:33:00,
2013-05-08 16:01:00,56.0,46.0,-100.00,WSW,255,3.0,14.0,70,0.00,,,0.00,618.000000,,2013-05-08 23:01:00,
2013-05-08 16:11:00,56.0,46.0,-100.00,WSW,255,3.0,14.0,70,0.00,,,0.00,618.000000,,2013-05-08 23:11:00,
2013-05-08 16:22:00,56.0,46.0,-100.00,WSW,255,3.0,14.0,70,0.00,,,0.00,618.000000,,2013-05-08 23:22:00,
2013-05-08 16:32:00,56.0,46.0,-100.00,WSW,255,3.0,14.0,70,0.00,,,0.00,618.000000,,2013-05-08 23:32:00,
2013-05-08 17:02:00,54.0,48.0,-100.00,WSW,245,3.0,9.0,81,0.00,,,0.00,189.000000,,2013-05-09 00:02:00,
2013-05-08 17:11:00,54.0,48.0,-100.00,WSW,245,3.0,9.0,81,0.00,,,0.00,189.000000,,2013-05-09 00:11:00,
2013-05-08 17:21:00,54.0,48.0,-100.00,WSW,245,3.0,9.0,81,0.00,,,0.00,189.000000,,2013-05-09 00:21:00,
2013-05-08 17:32:00,54.0,48.0,-100.00,WSW,245,3.0,9.0,81,0.00,,,0.00,189.000000,,2013-05-09 00:32:00,
2013-05-08 18:01:00,50.0,46.0,-100.00,West,273,1.0,11.0,86,0.00,,,0.00,73.000000,,2013-05-09 01:01:00,
2013-05-08 18:11:00,50.0,46.0,-100.00,West,273,1.0,11.0,86,0.00,,,0.00,73.000000,,2013-05-09 01:11:00,
2013-05-08 18:22:00,50.0,46.0,-100.00,West,273,1.0,11.0,86,0.00,,,0.00,73.000000,,2013-05-09 01:22:00,
2013-05-08 18:32:00,50.0,46.0,-100.00,West,273,1.0,11.0,86,0.00,,,0.00,73.000000,,2013-05-09 01:32:00,
2013-05-08 19:02:00,50.0,47.0,-100.00,NNW,328,2.0,9.0,88,0.00,,,0.00,43.000000,,2013-05-09 02:02:00,
2013-05-08 19:11:00,50.0,47.0,-100.00,NNW,328,2.0,9.0,88,0.00,,,0.00,43.000000,,2013-05-09 02:11:00,
2013-05-08 19:21:00,50.0,47.0,-100.00,NNW,328,2.0,9.0,88,0.00,,,0.00,43.000000,,2013-05-09 02:21:00,
2013-05-08 19:32:00,50.0,47.0,-100.00,NNW,328,2.0,9.0,88,0.00,,,0.00,43.000000,,2013-05-09 02:32:00,
2013-05-08 20:01:00,48.0,45.0,-100.00,West,273,0.0,8.0,89,0.00,,,0.00,14.000000,,2013-05-09 03:01:00,
2013-05-08 20:11:00,48.0,45.0,-100.00,West,273,0.0,8.0,89,0.00,,,0.00,14.000000,,2013-05-09 03:11:00,
2013-05-08 20:21:00,48.0,45.0,-100.00,West,273,0.0,8.0,89,0.00,,,0.00,14.000000,,2013-05-09 03:21:00,
2013-05-08 20:32:00,48.0,45.0,-100.00,West,273,0.0,8.0,89,0.00,,,0.00,14.000000,,2013-05-09 03:32:00,
2013-05-08 21:03:00,49.0,46.0,-100.00,West,267,0.0,3.0,91,0.00,,,0.00,0.000000,,2013-05-09 04:03:00,
2013-05-08 21:12:00,49.0,46.0,-100.00,West,267,0.0,3.0,91,0.00,,,0.00,0.000000,,2013-05-09 04:12:00,
2013-05-08 21:23:00,49.0,46.0,-100.00,West,267,0.0,3.0,91,0.00,,,0.00,0.000000,,2013-05-09 04:23:00,
2013-05-08 21:32:00,49.0,46.0,-100.00,West,267,0.0,3.0,91,0.00,,,0.00,0.000000,,2013-05-09 04:32:00,
2013-05-08 22:02:00,47.0,45.0,-100.00,SW,234,0.0,4.0,92,0.00,,,0.00,0.000000,,2013-05-09 05:02:00,
2013-05-08 22:12:00,47.0,45.0,-100.00,SW,234,0.0,4.0,92,0.00,,,0.00,0.000000,,2013-05-09 05:12:00,
2013-05-08 22:22:00,47.0,45.0,-100.00,SW,234,0.0,4.0,92,0.00,,,0.00,0.000000,,2013-05-09 05:22:00,
2013-05-08 22:32:00,47.0,45.0,-100.00,SW,234,0.0,4.0,92,0.00,,,0.00,0.000000,,2013-05-09 05:32:00,
2013-05-08 23:01:00,48.0,46.0,-100.00,WNW,284,0.0,4.0,92,0.00,,,0.00,0.000000,,2013-05-09 06:01:00,
2013-05-08 23:11:00,48.0,46.0,-100.00,WNW,284,0.0,4.0,92,0.00,,,0.00,0.000000,,2013-05-09 06:11:00,
2013-05-08 23:21:00,48.0,46.0,-100.00,WNW,284,0.0,4.0,92,0.00,,,0.00,0.000000,,2013-05-09 06:21:00,
2013-05-08 23:32:00,48.0,46.0,-100.00,WNW,284,0.0,4.0,92,0.00,,,0.00,0.000000,,2013-05-09 06:32:00,